Airport View

Enter AWOS ICAO identifier for current METAR.

ex. KFNL

KAIK 171245Z AUTO 01011G15KT 10SM SCT075 05/00 A3008 RMK AO2

17 Nov 2019 12:42

Frequency: 118.025

Phone: 803-643-8664

Other Area AWOS: KDNL - KAGS - KBNL - KCAE

TAF KDNL 171135Z 1712/1812 01010KT P6SM FEW030 SCT060 FM171800 36007KT P6SM SCT020 BKN050 FM180800 33005KT P6SM SCT010 BKN035